createdAt,value
2022-09-06T00:00:59.053Z,2.92
2022-09-06T00:03:29.754Z,2.40
2022-09-06T00:05:56.419Z,2.78
2022-09-06T00:08:23.443Z,2.65
2022-09-06T00:11:01.114Z,3.08
2022-09-06T00:13:28.698Z,2.80
2022-09-06T00:15:55.818Z,2.70
2022-09-06T00:18:22.968Z,2.70
2022-09-06T00:20:50.073Z,2.78
2022-09-06T00:23:17.101Z,2.85
2022-09-06T00:25:44.101Z,2.63
2022-09-06T00:28:11.150Z,2.97
2022-09-06T00:30:38.169Z,2.45
2022-09-06T00:33:05.192Z,2.60
2022-09-06T00:35:32.406Z,2.63
2022-09-06T00:38:00.841Z,2.83
2022-09-06T00:40:29.990Z,2.88
2022-09-06T00:42:57.588Z,2.85
2022-09-06T00:45:27.055Z,3.00
2022-09-06T00:47:54.860Z,3.25
2022-09-06T00:50:22.153Z,2.92
2022-09-06T00:52:52.041Z,2.85
2022-09-06T00:55:20.947Z,2.65
2022-09-06T00:57:51.242Z,3.00
2022-09-06T01:00:19.914Z,3.20
2022-09-06T01:02:48.151Z,3.50
2022-09-06T01:05:16.655Z,2.80
2022-09-06T01:08:04.924Z,2.67
2022-09-06T01:11:09.311Z,3.03
2022-09-06T01:14:05.480Z,3.13
2022-09-06T01:16:51.593Z,3.10
2022-09-06T01:19:56.676Z,2.58
2022-09-06T01:23:04.601Z,2.80
2022-09-06T01:26:15.497Z,2.92
2022-09-06T01:28:46.483Z,2.63
2022-09-06T01:31:25.868Z,2.70
2022-09-06T01:34:07.157Z,3.42
2022-09-06T01:37:08.530Z,3.40
2022-09-06T01:39:37.750Z,3.10
2022-09-06T01:42:19.550Z,3.28
2022-09-06T01:44:52.829Z,3.03
2022-09-06T01:50:05.980Z,3.13
2022-09-06T01:52:46.648Z,3.05
2022-09-06T01:55:39.137Z,3.25
2022-09-06T01:58:17.736Z,3.70
2022-09-06T02:01:10.765Z,3.63
2022-09-06T02:04:06.323Z,3.92
2022-09-06T02:06:40.664Z,3.58
2022-09-06T02:09:19.655Z,3.88
2022-09-06T02:11:57.496Z,3.92
2022-09-06T02:14:41.284Z,4.18
2022-09-06T02:17:12.372Z,4.32
2022-09-06T02:19:45.921Z,4.10
2022-09-06T02:22:16.792Z,3.78
2022-09-06T02:24:47.212Z,4.25
2022-09-06T02:27:14.549Z,4.53
2022-09-06T02:29:41.869Z,3.92
2022-09-06T02:32:26.212Z,4.35
2022-09-06T02:34:56.252Z,4.22
2022-09-06T02:37:25.983Z,4.20
2022-09-06T02:39:55.899Z,4.63
2022-09-06T02:42:24.363Z,4.97
2022-09-06T02:44:51.489Z,5.00
2022-09-06T02:47:18.493Z,4.63
2022-09-06T02:49:45.472Z,5.40
2022-09-06T02:52:12.420Z,4.95
2022-09-06T02:54:39.893Z,5.22
2022-09-06T02:57:06.574Z,4.78
2022-09-06T02:59:33.957Z,5.35
2022-09-06T03:02:00.644Z,4.93
2022-09-06T03:04:27.783Z,5.32
2022-09-06T03:06:56.224Z,5.03
2022-09-06T03:09:23.266Z,5.15
2022-09-06T03:11:50.204Z,5.28
2022-09-06T03:14:17.273Z,4.75
2022-09-06T03:16:44.258Z,5.13
2022-09-06T03:19:11.270Z,4.97
2022-09-06T03:21:38.223Z,6.00
2022-09-06T03:24:05.419Z,5.00
2022-09-06T03:26:32.395Z,5.10
2022-09-06T03:28:59.348Z,5.35
2022-09-06T03:31:26.353Z,4.97
2022-09-06T03:33:53.343Z,5.15
2022-09-06T03:36:20.338Z,5.78
2022-09-06T03:38:47.447Z,5.75
2022-09-06T03:41:14.413Z,5.28
2022-09-06T03:43:41.415Z,5.07
2022-09-06T03:46:08.500Z,5.97
2022-09-06T03:48:35.693Z,5.88
2022-09-06T03:51:02.732Z,5.97
2022-09-06T03:53:29.936Z,5.90
2022-09-06T03:55:58.199Z,5.38
2022-09-06T03:58:29.736Z,6.28
2022-09-06T04:01:05.805Z,6.63
2022-09-06T04:03:33.741Z,6.57
2022-09-06T04:06:01.392Z,6.95
2022-09-06T04:08:28.516Z,6.78
2022-09-06T04:10:57.105Z,6.75
2022-09-06T04:13:25.754Z,6.13
2022-09-06T04:15:52.962Z,6.72
2022-09-06T04:18:20.961Z,6.38
2022-09-06T04:20:49.831Z,5.75
2022-09-06T04:23:17.581Z,6.10
2022-09-06T04:25:49.335Z,6.95
2022-09-06T04:28:18.263Z,6.63
2022-09-06T04:30:51.542Z,7.20
2022-09-06T04:33:18.546Z,7.22
2022-09-06T04:35:56.750Z,6.95
2022-09-06T04:38:24.911Z,7.65
2022-09-06T04:40:51.703Z,6.65
2022-09-06T04:43:18.797Z,6.53
2022-09-06T04:45:45.871Z,6.90
2022-09-06T04:48:13.288Z,6.00
2022-09-06T04:50:40.319Z,7.40
2022-09-06T04:53:07.955Z,6.65
2022-09-06T04:55:35.116Z,6.93
2022-09-06T04:58:03.652Z,6.60
2022-09-06T05:00:32.520Z,6.55
2022-09-06T05:03:00.488Z,7.07
2022-09-06T05:05:27.308Z,6.85
2022-09-06T05:07:55.278Z,7.30
2022-09-06T05:10:23.263Z,7.75
2022-09-06T05:12:52.325Z,6.70
2022-09-06T05:15:21.545Z,6.93
2022-09-06T05:17:48.680Z,7.68
2022-09-06T05:20:16.102Z,7.75
2022-09-06T05:22:43.074Z,7.28
2022-09-06T05:25:10.521Z,7.85
2022-09-06T05:27:37.488Z,7.88
2022-09-06T05:30:04.855Z,8.38
2022-09-06T05:32:31.817Z,8.15
2022-09-06T05:34:58.818Z,7.85
2022-09-06T05:37:26.097Z,8.65
2022-09-06T05:39:53.143Z,8.18
2022-09-06T05:42:20.210Z,8.20
2022-09-06T05:44:47.030Z,8.25
2022-09-06T05:47:13.971Z,7.60
2022-09-06T05:49:41.162Z,6.35
2022-09-06T05:52:07.861Z,5.72
2022-09-06T05:54:34.819Z,6.57
2022-09-06T05:57:02.287Z,5.30
2022-09-06T05:59:29.258Z,5.40
2022-09-06T06:01:56.229Z,5.70
2022-09-06T06:04:23.294Z,5.53
2022-09-06T06:06:50.455Z,7.50
2022-09-06T06:09:17.674Z,6.03
2022-09-06T06:11:44.644Z,5.93
2022-09-06T06:14:11.683Z,5.43
2022-09-06T06:16:38.742Z,5.22
2022-09-06T06:19:05.440Z,5.30
2022-09-06T06:21:34.023Z,5.75
2022-09-06T06:24:03.244Z,5.60
2022-09-06T06:26:32.872Z,5.53
2022-09-06T06:29:01.712Z,5.45
2022-09-06T06:31:30.097Z,5.32
2022-09-06T06:33:58.176Z,5.90
2022-09-06T06:36:27.129Z,5.63
2022-09-06T06:38:55.266Z,6.07
2022-09-06T06:41:25.338Z,5.53
2022-09-06T06:43:57.058Z,5.93
2022-09-06T06:46:26.550Z,6.60
2022-09-06T06:48:56.414Z,6.72
2022-09-06T06:51:25.851Z,7.18
2022-09-06T06:53:52.862Z,6.75
2022-09-06T06:56:24.331Z,6.20
2022-09-06T06:58:55.460Z,6.90
2022-09-06T07:01:23.603Z,7.00
2022-09-06T07:03:50.978Z,7.30
2022-09-06T07:06:19.744Z,7.55
2022-09-06T07:08:47.426Z,6.22
2022-09-06T07:11:17.248Z,6.18
2022-09-06T07:13:45.355Z,6.93
2022-09-06T07:16:23.894Z,7.63
2022-09-06T07:18:54.856Z,6.80
2022-09-06T07:21:41.932Z,7.70
2022-09-06T07:24:09.802Z,7.63
2022-09-06T07:26:39.412Z,7.97
2022-09-06T07:29:07.665Z,8.02
2022-09-06T07:34:22.476Z,7.72
2022-09-06T07:36:55.971Z,8.18
2022-09-06T07:39:23.467Z,8.35
2022-09-06T07:41:50.575Z,7.90
2022-09-06T07:44:17.203Z,8.40
2022-09-06T07:46:44.288Z,9.18
2022-09-06T07:49:11.358Z,8.30
2022-09-06T07:51:38.296Z,7.88
2022-09-06T07:54:29.435Z,6.50
2022-09-06T07:56:53.818Z,6.75
2022-09-06T07:59:20.469Z,6.97
2022-09-06T08:01:48.166Z,6.05
2022-09-06T08:04:15.315Z,5.28
2022-09-06T08:09:37.732Z,4.72
2022-09-06T08:12:07.287Z,5.10
2022-09-06T08:14:34.952Z,4.50
2022-09-06T08:17:02.890Z,4.60
2022-09-06T08:19:30.025Z,5.35
2022-09-06T08:21:57.247Z,5.75
2022-09-06T08:24:24.323Z,4.93
2022-09-06T08:26:51.362Z,4.35
2022-09-06T08:29:19.834Z,5.25
2022-09-06T08:31:47.692Z,4.07
2022-09-06T08:34:15.055Z,4.47
2022-09-06T08:36:42.905Z,4.47
2022-09-06T08:39:10.726Z,4.40
2022-09-06T08:41:55.074Z,4.40
2022-09-06T08:47:24.495Z,3.00
2022-09-06T08:50:11.494Z,3.15
2022-09-06T08:53:17.566Z,3.20
2022-09-06T08:56:11.012Z,2.45
2022-09-06T08:58:44.631Z,2.72
2022-09-06T09:01:23.022Z,2.85
2022-09-06T09:03:52.612Z,2.25
2022-09-06T09:06:19.415Z,2.35
2022-09-06T09:08:51.051Z,1.80
2022-09-06T09:11:20.528Z,1.67
2022-09-06T09:13:47.911Z,1.40
2022-09-06T09:16:15.534Z,1.30
2022-09-06T09:18:55.263Z,1.70
2022-09-06T09:21:28.240Z,1.50
2022-09-06T09:24:02.091Z,1.50
2022-09-06T09:26:35.436Z,1.33
2022-09-06T09:29:13.800Z,1.85
2022-09-06T09:31:53.598Z,1.63
2022-09-06T09:34:34.046Z,1.42
2022-09-06T09:40:33.328Z,1.48
2022-09-06T09:43:22.232Z,1.30
2022-09-06T09:46:13.817Z,1.45
2022-09-06T09:49:02.210Z,1.50
2022-09-06T09:51:29.980Z,1.80
2022-09-06T09:54:03.696Z,1.70
2022-09-06T09:56:33.089Z,1.70
2022-09-06T09:59:01.902Z,1.30
2022-09-06T10:01:33.553Z,1.33
2022-09-06T10:09:41.233Z,1.48
2022-09-06T10:12:08.190Z,1.33
2022-09-06T10:14:44.761Z,1.20
2022-09-06T10:17:30.203Z,1.50
2022-09-06T10:20:09.083Z,1.35
2022-09-06T10:22:43.895Z,1.30
2022-09-06T10:25:48.905Z,1.38
2022-09-06T10:28:31.910Z,1.35
2022-09-06T10:31:34.804Z,1.40
2022-09-06T10:34:25.477Z,1.60
2022-09-06T10:37:18.090Z,1.50
2022-09-06T10:39:50.189Z,1.52
2022-09-06T10:42:55.068Z,1.23
2022-09-06T10:45:33.490Z,1.85
2022-09-06T10:48:02.883Z,1.42
2022-09-06T10:50:49.775Z,1.48
2022-09-06T10:53:29.547Z,1.50
2022-09-06T10:56:07.807Z,1.67
2022-09-06T11:02:06.147Z,1.70
2022-09-06T11:07:38.215Z,1.40
2022-09-06T11:10:16.596Z,1.40
2022-09-06T11:13:17.173Z,1.35
2022-09-06T11:15:50.092Z,1.40
2022-09-06T11:18:45.516Z,1.20
2022-09-06T11:21:45.926Z,1.50
2022-09-06T11:24:13.376Z,1.45
2022-09-06T11:27:17.866Z,1.48
2022-09-06T11:29:47.903Z,1.92
2022-09-06T11:32:50.157Z,1.42
2022-09-06T11:35:30.063Z,1.83
2022-09-06T11:38:07.191Z,1.80
2022-09-06T11:40:41.456Z,1.75
2022-09-06T11:43:14.755Z,1.30
2022-09-06T11:45:59.985Z,1.52
2022-09-06T11:48:26.760Z,1.85
2022-09-06T11:50:53.764Z,1.70
2022-09-06T11:53:26.423Z,1.50
2022-09-06T11:56:02.415Z,2.08
2022-09-06T11:58:40.270Z,2.25
2022-09-06T12:01:13.202Z,1.60
2022-09-06T12:04:05.950Z,2.13
2022-09-06T12:06:40.592Z,1.50
2022-09-06T12:09:29.261Z,2.15
2022-09-06T12:11:57.632Z,1.80
2022-09-06T12:14:40.843Z,1.40
2022-09-06T12:17:09.086Z,1.63
2022-09-06T12:19:47.521Z,1.88
2022-09-06T12:22:26.955Z,1.30
2022-09-06T12:24:59.551Z,1.52
2022-09-06T12:27:27.722Z,2.08
2022-09-06T12:29:59.205Z,1.50
2022-09-06T12:32:36.198Z,1.60
2022-09-06T12:38:07.138Z,1.40
2022-09-06T12:40:45.466Z,1.30
2022-09-06T12:43:15.436Z,1.17
2022-09-06T12:45:48.455Z,1.50
2022-09-06T12:48:35.947Z,2.00
2022-09-06T12:51:05.454Z,1.92
2022-09-06T12:53:34.315Z,1.67
2022-09-06T12:56:14.395Z,1.02
2022-09-06T12:58:41.808Z,1.20
2022-09-06T13:01:16.107Z,1.20
2022-09-06T13:04:02.841Z,1.40
2022-09-06T13:06:33.773Z,1.45
2022-09-06T13:09:01.848Z,1.23
2022-09-06T13:11:34.478Z,1.20
2022-09-06T13:14:13.820Z,1.05
2022-09-06T13:16:48.050Z,1.08
2022-09-06T13:19:28.990Z,1.20
2022-09-06T13:21:55.920Z,1.73
2022-09-06T13:24:34.666Z,1.30
2022-09-06T13:27:24.626Z,1.65
2022-09-06T13:30:10.479Z,1.50
2022-09-06T13:32:46.552Z,1.40
2022-09-06T13:35:23.820Z,1.77
2022-09-06T13:37:51.176Z,2.35
2022-09-06T13:41:09.014Z,1.70
2022-09-06T13:43:28.957Z,1.48
2022-09-06T13:46:17.268Z,3.05
2022-09-06T13:48:45.310Z,1.90
2022-09-06T13:51:12.337Z,4.03
2022-09-06T13:53:39.019Z,1.88
2022-09-06T13:56:08.424Z,1.25
2022-09-06T13:58:36.124Z,1.60
2022-09-06T14:01:04.064Z,1.65
2022-09-06T14:03:32.319Z,1.60
2022-09-06T14:06:00.148Z,1.25
2022-09-06T14:08:38.845Z,1.30
2022-09-06T14:11:16.069Z,1.50
2022-09-06T14:13:43.465Z,1.20
2022-09-06T14:16:10.987Z,1.70
2022-09-06T14:18:38.172Z,1.33
2022-09-06T14:21:05.337Z,1.45
2022-09-06T14:23:32.180Z,1.80
2022-09-06T14:26:00.592Z,1.60
2022-09-06T14:28:30.923Z,1.50
2022-09-06T14:30:57.746Z,1.67
2022-09-06T14:33:24.907Z,1.67
2022-09-06T14:35:52.224Z,1.20
2022-09-06T14:38:19.421Z,1.58
2022-09-06T14:40:46.103Z,1.23
2022-09-06T14:43:13.219Z,1.30
2022-09-06T14:45:40.028Z,1.35
2022-09-06T14:48:07.085Z,1.30
2022-09-06T14:50:34.282Z,1.48
2022-09-06T14:53:01.920Z,1.67
2022-09-06T14:55:29.957Z,1.42
2022-09-06T14:57:56.616Z,1.23
2022-09-06T15:00:23.460Z,1.20
2022-09-06T15:02:50.827Z,1.02
2022-09-06T15:05:17.921Z,1.40
2022-09-06T15:07:45.003Z,1.20
2022-09-06T15:10:12.072Z,1.20
2022-09-06T15:12:39.076Z,1.10
2022-09-06T15:15:06.257Z,1.15
2022-09-06T15:17:35.017Z,1.63
2022-09-06T15:20:01.994Z,1.10
2022-09-06T15:22:29.465Z,1.38
2022-09-06T15:24:56.149Z,1.13
2022-09-06T15:27:23.186Z,1.27
2022-09-06T15:29:50.002Z,1.23
2022-09-06T15:32:17.035Z,1.30
2022-09-06T15:34:43.702Z,1.40
2022-09-06T15:37:10.787Z,1.40
2022-09-06T15:39:38.046Z,1.00
2022-09-06T15:42:04.894Z,1.20
2022-09-06T15:44:31.886Z,1.20
2022-09-06T15:46:59.324Z,1.50
2022-09-06T15:49:31.086Z,1.42
2022-09-06T15:52:00.705Z,1.30
2022-09-06T15:54:47.920Z,1.20
2022-09-06T15:57:16.304Z,1.20
2022-09-06T15:59:44.080Z,0.90
2022-09-06T16:02:11.035Z,1.00
2022-09-06T16:04:38.512Z,1.30
2022-09-06T16:07:05.740Z,1.25
2022-09-06T16:09:33.076Z,1.10
2022-09-06T16:11:59.761Z,1.40
2022-09-06T16:14:28.039Z,1.27
2022-09-06T16:16:56.012Z,1.20
2022-09-06T16:19:24.456Z,1.27
2022-09-06T16:21:51.132Z,1.45
2022-09-06T16:24:18.560Z,1.10
2022-09-06T16:26:46.663Z,1.30
2022-09-06T16:29:16.559Z,1.20
2022-09-06T16:31:43.749Z,1.48
2022-09-06T16:34:12.705Z,1.25
2022-09-06T16:36:39.954Z,1.40
2022-09-06T16:39:07.971Z,1.33
2022-09-06T16:41:43.425Z,1.17
2022-09-06T16:44:15.981Z,1.38
2022-09-06T16:46:47.441Z,1.40
2022-09-06T16:49:16.700Z,1.10
2022-09-06T16:51:44.194Z,1.30
2022-09-06T16:54:10.932Z,1.20
2022-09-06T16:56:38.860Z,1.23
2022-09-06T16:59:07.548Z,1.50
2022-09-06T17:01:36.123Z,1.48
2022-09-06T17:04:04.383Z,1.17
2022-09-06T17:06:32.902Z,1.40
2022-09-06T17:09:00.138Z,1.20
2022-09-06T17:11:28.283Z,1.48
2022-09-06T17:13:56.342Z,1.10
2022-09-06T17:16:42.356Z,1.10
2022-09-06T17:19:10.800Z,1.30
2022-09-06T17:21:39.041Z,1.48
2022-09-06T17:24:07.515Z,1.77
2022-09-06T17:26:35.799Z,1.50
2022-09-06T17:29:03.974Z,1.60
2022-09-06T17:31:31.329Z,2.08
2022-09-06T17:34:02.021Z,2.20
2022-09-06T17:36:31.596Z,2.60
2022-09-06T17:39:10.954Z,2.97
2022-09-06T17:41:45.516Z,2.92
2022-09-06T17:44:16.747Z,2.88
2022-09-06T17:46:56.928Z,2.67
2022-09-06T17:49:26.042Z,2.65
2022-09-06T17:51:52.780Z,2.50
2022-09-06T17:54:20.212Z,2.28
2022-09-06T17:56:46.924Z,2.22
2022-09-06T17:59:15.810Z,2.00
2022-09-06T18:01:44.512Z,1.95
2022-09-06T18:04:13.033Z,2.50
2022-09-06T18:06:41.823Z,2.50
2022-09-06T18:09:11.765Z,2.67
2022-09-06T18:11:39.909Z,3.25
2022-09-06T18:14:12.390Z,2.72
2022-09-06T18:16:40.257Z,2.67
2022-09-06T18:19:08.719Z,2.70
2022-09-06T18:21:38.685Z,3.00
2022-09-06T18:24:06.850Z,4.82
2022-09-06T18:26:33.636Z,4.53
2022-09-06T18:29:01.329Z,8.40
2022-09-06T18:31:28.351Z,6.50
2022-09-06T18:33:59.249Z,8.20
2022-09-06T18:36:31.214Z,11.63
2022-09-06T18:39:05.188Z,15.05
2022-09-06T18:41:51.905Z,17.40
2022-09-06T18:44:19.258Z,12.68
2022-09-06T18:46:46.791Z,9.15
2022-09-06T18:49:15.092Z,11.05
2022-09-06T18:51:42.795Z,9.65
2022-09-06T18:54:10.774Z,8.73
2022-09-06T18:56:37.831Z,8.00
2022-09-06T18:59:05.644Z,5.43
2022-09-06T19:01:34.615Z,5.72
2022-09-06T19:04:02.979Z,4.93
2022-09-06T19:06:31.470Z,4.60
2022-09-06T19:09:00.390Z,4.55
2022-09-06T19:11:27.690Z,5.22
2022-09-06T19:13:56.101Z,4.80
2022-09-06T19:16:24.335Z,4.00
2022-09-06T19:18:55.011Z,5.95
2022-09-06T19:21:27.648Z,8.45
2022-09-06T19:26:27.029Z,6.32
2022-09-06T19:28:56.216Z,5.47
2022-09-06T19:31:27.903Z,5.88
2022-09-06T19:34:01.880Z,3.58
2022-09-06T19:36:29.535Z,2.47
2022-09-06T19:39:05.797Z,2.45
2022-09-06T19:41:36.070Z,1.90
2022-09-06T19:44:05.569Z,2.47
2022-09-06T19:46:32.902Z,2.17
2022-09-06T19:49:00.689Z,3.22
2022-09-06T19:51:27.535Z,2.72
2022-09-06T19:53:57.537Z,2.28
2022-09-06T19:56:34.090Z,2.40
2022-09-06T19:59:03.541Z,2.05
2022-09-06T20:01:32.562Z,1.98
2022-09-06T20:04:02.645Z,2.38
2022-09-06T20:06:30.882Z,2.40
2022-09-06T20:08:59.486Z,2.38
2022-09-06T20:11:29.039Z,2.30
2022-09-06T20:13:56.644Z,2.33
2022-09-06T20:16:27.072Z,2.20
2022-09-06T20:18:55.375Z,1.88
2022-09-06T20:21:22.554Z,1.85
2022-09-06T20:23:51.475Z,1.90
2022-09-06T20:26:19.505Z,2.22
2022-09-06T20:28:47.330Z,2.20
2022-09-06T20:31:16.928Z,2.10
2022-09-06T20:33:49.364Z,2.20
2022-09-06T20:36:18.378Z,2.53
2022-09-06T20:38:46.861Z,1.98
2022-09-06T20:41:18.816Z,1.80
2022-09-06T20:43:50.758Z,3.35
2022-09-06T20:46:19.433Z,2.55
2022-09-06T20:48:47.388Z,2.80
2022-09-06T20:51:18.684Z,2.72
2022-09-06T20:53:48.492Z,2.88
2022-09-06T20:56:17.724Z,1.95
2022-09-06T20:58:50.191Z,1.90
2022-09-06T21:01:22.353Z,2.20
2022-09-06T21:03:52.160Z,2.33
2022-09-06T21:06:20.476Z,2.40
2022-09-06T21:08:48.762Z,2.05
2022-09-06T21:11:15.990Z,2.40
2022-09-06T21:13:44.014Z,2.53
2022-09-06T21:16:10.888Z,2.35
2022-09-06T21:18:37.954Z,2.63
2022-09-06T21:21:06.660Z,2.80
2022-09-06T21:23:36.667Z,2.72
2022-09-06T21:26:06.734Z,2.20
2022-09-06T21:28:39.131Z,2.35
2022-09-06T21:31:17.178Z,2.38
2022-09-06T21:33:49.012Z,2.10
2022-09-06T21:36:18.264Z,1.92
2022-09-06T21:38:48.095Z,2.60
2022-09-06T21:41:18.115Z,2.00
2022-09-06T21:43:46.170Z,1.90
2022-09-06T21:46:14.913Z,1.90
2022-09-06T21:48:45.054Z,2.08
2022-09-06T21:51:14.143Z,1.95
2022-09-06T21:53:43.287Z,2.00
2022-09-06T21:56:10.745Z,1.77
2022-09-06T21:58:38.334Z,1.80
2022-09-06T22:01:05.592Z,1.98
2022-09-06T22:03:36.138Z,1.85
2022-09-06T22:06:14.608Z,1.70
2022-09-06T22:08:44.748Z,2.00
2022-09-06T22:11:38.496Z,2.00
2022-09-06T22:14:07.888Z,1.83
2022-09-06T22:16:37.931Z,2.05
2022-09-06T22:19:06.889Z,1.65
2022-09-06T22:21:34.256Z,2.20
2022-09-06T22:24:03.858Z,1.95
2022-09-06T22:26:32.834Z,1.90
2022-09-06T22:29:02.450Z,1.50
2022-09-06T22:31:31.132Z,1.70
2022-09-06T22:33:59.118Z,1.73
2022-09-06T22:36:26.738Z,1.63
2022-09-06T22:38:57.915Z,1.60
2022-09-06T22:41:30.251Z,1.80
2022-09-06T22:44:00.536Z,1.63
2022-09-06T22:46:27.640Z,1.77
2022-09-06T22:48:55.688Z,1.30
2022-09-06T22:51:22.558Z,1.40
2022-09-06T22:53:50.079Z,1.10
2022-09-06T22:56:16.766Z,1.10
2022-09-06T22:58:44.087Z,1.35
2022-09-06T23:01:13.228Z,1.25
2022-09-06T23:03:41.636Z,2.15
2022-09-06T23:06:08.979Z,1.77
2022-09-06T23:08:39.115Z,5.05
2022-09-06T23:11:14.733Z,3.50
2022-09-06T23:13:46.362Z,2.63
2022-09-06T23:16:17.250Z,2.13
2022-09-06T23:18:45.337Z,2.08
2022-09-06T23:21:15.071Z,2.72
2022-09-06T23:23:42.756Z,2.50
2022-09-06T23:26:15.580Z,2.40
2022-09-06T23:28:43.695Z,2.50
2022-09-06T23:31:14.023Z,2.83
2022-09-06T23:33:42.041Z,3.00
2022-09-06T23:36:12.395Z,3.03
2022-09-06T23:38:41.048Z,2.40
2022-09-06T23:41:09.748Z,3.05
2022-09-06T23:43:37.408Z,2.63
2022-09-06T23:46:04.942Z,2.53
2022-09-06T23:48:32.620Z,2.75
2022-09-06T23:50:59.516Z,3.00
2022-09-06T23:53:29.629Z,3.30
2022-09-06T23:55:56.328Z,3.03
2022-09-06T23:58:24.192Z,2.85
